Latest Weather Observations for Rutherglen

IDV60801

Issued at 11:02 pm EST Sunday 5 July 2015 (issued every 30 minutes, with the page automatically refreshed every 10 minutes)

About weather observations | Map of weather stations | Latest weather observations for VIC | Other Formats
Station Details ID: 082039 Name: RUTHERGLEN RESEARCH Lat: -36.10 Lon: 146.51 Height: 175.0 m
Data from the previous 72 hours. | See also: Recent months at Rutherglen
Date/Time
EST
Temp
°C
App
Temp
°C
Dew
Point
Rel
Hum
%
Delta-T
°C
Wind Press
QNH
hPa
Press
MSL
hPa
Rain
since 9 am
mm
Dir
 
Spd
km/h
Gust
km/h
Spd
kts
Gust
kts
05/11:00pm 6.7 5.9 6.7 100 0.0 CALM 0 0 0 0 - - 0.0
05/10:30pm 6.9 6.2 6.9 100 0.0 CALM 0 0 0 0 - - 0.0
05/10:00pm 6.8 6.1 6.8 100 0.0 CALM 0 0 0 0 - - 0.0
05/09:30pm 7.0 6.3 7.0 100 0.0 CALM 0 0 0 0 - - 0.0
05/09:00pm 6.9 6.2 6.9 100 0.0 CALM 0 0 0 0 - - 0.0
05/08:30pm 6.8 4.9 6.8 100 0.0 E 6 7 3 4 - - 0.0
05/08:00pm 6.9 6.2 6.9 100 0.0 CALM 0 0 0 0 - - 0.0
05/07:30pm 7.0 6.3 6.9 99 0.0 CALM 0 0 0 0 - - 0.0
05/07:00pm 7.3 6.7 7.2 99 0.0 CALM 0 0 0 0 - - 0.0
05/06:30pm 7.8 7.1 7.1 95 0.3 CALM 0 0 0 0 - - 0.0
05/06:00pm 7.8 7.1 7.1 95 0.3 CALM 0 0 0 0 - - 0.0
05/05:30pm 7.8 7.0 6.4 91 0.6 CALM 0 0 0 0 - - 0.0
05/05:00pm 8.6 7.6 5.5 81 1.4 CALM 0 0 0 0 - - 0.0
05/04:30pm 11.6 10.6 5.7 67 2.8 CALM 0 0 0 0 - - 0.0
05/04:00pm 11.7 10.0 5.8 67 2.8 W 4 6 2 3 - - 0.0
05/03:30pm 10.9 8.6 5.0 67 2.7 W 6 9 3 5 - - 0.0
05/03:00pm 10.9 8.7 5.2 68 2.6 WNW 6 11 3 6 - - 0.0
05/02:30pm 10.6 8.3 4.7 67 2.7 WNW 6 9 3 5 - - 0.0
05/02:00pm 10.6 8.1 4.9 68 2.6 WSW 7 11 4 6 - - 0.0
05/01:30pm 10.4 8.1 5.6 72 2.2 W 7 11 4 6 - - 0.0
05/01:00pm 10.5 8.2 5.7 72 2.2 WNW 7 11 4 6 - - 0.0
05/12:30pm 9.6 7.3 4.8 72 2.2 W 6 9 3 5 - - 0.0
05/12:00pm 9.7 8.3 5.7 76 1.8 SSW 2 6 1 3 - - 0.0
05/11:30am 10.4 8.8 6.2 75 2.0 W 4 7 2 4 - - 0.0
05/11:00am 8.7 6.6 5.8 82 1.3 SW 6 7 3 4 - - 0.0
05/10:30am 8.4 7.7 7.0 91 0.7 CALM 0 7 0 4 - - 0.0
05/10:00am 7.2 5.3 6.8 97 0.2 NNE 6 7 3 4 - - 0.0
05/09:30am 5.8 3.7 5.8 100 0.0 NNE 6 7 3 4 - - 0.0
05/09:00am 4.4 3.2 4.4 100 0.0 CALM 0 0 0 0 - - 0.0
05/08:30am 2.2 0.6 2.2 100 0.0 CALM 0 2 0 1 - - 0.0
05/08:00am 0.9 -1.3 0.9 100 0.0 SE 2 7 1 4 - - 0.0
05/07:30am 0.7 -1.2 0.7 100 0.0 CALM 0 0 0 0 - - 0.0
05/07:00am 0.5 -1.4 0.5 100 0.0 CALM 0 0 0 0 - - 0.0
05/06:30am 0.4 -1.5 0.4 100 0.0 CALM 0 0 0 0 - - 0.0
05/06:00am 0.1 -1.9 0.1 100 0.0 CALM 0 0 0 0 - - 0.0
05/05:30am -0.2 -2.2 -0.2 100 0.0 CALM 0 0 0 0 - - 0.0
05/05:00am 0.1 -1.9 0.1 100 0.0 CALM 0 0 0 0 - - 0.0
05/04:30am 0.8 -1.1 0.8 100 0.0 CALM 0 0 0 0 - - 0.0
05/04:00am 0.8 -1.1 0.8 100 0.0 CALM 0 0 0 0 - - 0.0
05/03:30am 0.5 -1.4 0.5 100 0.0 CALM 0 0 0 0 - - 0.0
05/03:00am 0.3 -2.0 0.3 100 0.0 E 2 6 1 3 - - 0.0
05/02:30am 1.1 -0.7 1.1 100 0.0 CALM 0 0 0 0 - - 0.0
05/02:00am 2.8 1.3 2.8 100 0.0 CALM 0 0 0 0 - - 0.0
05/01:30am 3.2 1.7 3.2 100 0.0 CALM 0 0 0 0 - - 0.0
05/01:00am 5.0 3.9 5.0 100 0.0 CALM 0 0 0 0 - - 0.0
05/12:30am 5.2 4.1 5.2 100 0.0 CALM 0 0 0 0 - - 0.0
05/12:00am 5.9 5.0 5.9 100 0.0 CALM 0 0 0 0 - - 0.0
 
Date/Time
EST
Temp
°C
App
Temp
°C
Dew
Point
Rel
Hum
%
Delta-T
°C
Wind Press
QNH
hPa
Press
MSL
hPa
Rain
since 9 am
mm
Dir
 
Spd
km/h
Gust
km/h
Spd
kts
Gust
kts
04/11:30pm 6.4 5.6 6.4 100 0.0 CALM 0 0 0 0 - - 0.0
04/11:00pm 6.4 5.6 6.4 100 0.0 CALM 0 0 0 0 - - 0.0
04/10:30pm 6.6 5.8 6.6 100 0.0 CALM 0 0 0 0 - - 0.0
04/10:00pm 6.5 5.7 6.5 100 0.0 CALM 0 0 0 0 - - 0.0
04/09:30pm 6.5 5.7 6.5 100 0.0 CALM 0 0 0 0 - - 0.0
04/09:00pm 6.5 5.7 6.5 100 0.0 CALM 0 0 0 0 - - 0.0
04/08:30pm 6.5 5.7 6.5 100 0.0 CALM 0 0 0 0 - - 0.0
04/08:00pm 6.3 5.5 6.3 100 0.0 CALM 0 0 0 0 - - 0.0
04/07:30pm 6.1 5.2 6.1 100 0.0 CALM 0 0 0 0 - - 0.0
04/07:00pm 5.8 4.8 5.8 100 0.0 CALM 0 0 0 0 - - 0.0
04/06:30pm 5.9 4.9 5.8 99 0.0 CALM 0 0 0 0 - - 0.0
04/06:00pm 7.1 6.2 5.9 92 0.5 CALM 0 0 0 0 - - 0.0
04/05:30pm 8.1 7.2 6.2 88 0.9 CALM 0 0 0 0 - - 0.0
04/05:00pm 8.9 7.6 6.2 83 1.3 SW 2 6 1 3 - - 0.0
04/04:30pm 9.3 7.1 5.5 77 1.7 SW 6 7 3 4 - - 0.0
04/04:00pm 9.5 7.1 5.1 74 2.0 WSW 7 9 4 5 - - 0.0
04/03:30pm 10.2 7.7 5.0 70 2.4 SW 7 11 4 6 - - 0.0
04/03:00pm 9.8 7.4 5.4 74 2.0 SW 7 11 4 6 - - 0.0
04/02:30pm 9.9 7.1 5.1 72 2.2 WNW 9 15 5 8 - - 0.0
04/02:00pm 10.2 7.7 5.0 70 2.4 W 7 13 4 7 - - 0.0
04/01:30pm 9.9 7.0 4.5 69 2.4 W 9 17 5 9 - - 0.0
04/01:00pm 10.1 7.3 5.1 71 2.3 WNW 9 15 5 8 - - 0.0
04/12:30pm 9.9 7.0 4.9 71 2.3 WSW 9 17 5 9 - - 0.0
04/12:00pm 9.6 7.3 5.0 73 2.1 N 6 11 3 6 - - 0.0
04/11:30am 9.2 7.0 6.3 82 1.4 NNE 7 9 4 5 - - 0.0
04/11:00am 7.8 5.7 5.9 88 0.9 NNE 6 7 3 4 - - 0.0
04/10:30am 6.4 4.2 5.5 94 0.4 N 6 9 3 5 - - 0.0
04/10:00am 5.9 3.7 5.3 96 0.3 NNE 6 9 3 5 - - 0.0
04/09:30am 5.5 4.1 5.5 100 0.0 ENE 2 7 1 4 - - 0.0
04/09:00am 2.8 1.3 2.8 100 0.0 CALM 0 0 0 0 - - 0.0
04/08:30am 1.5 -0.3 1.5 100 0.0 CALM 0 0 0 0 - - 0.0
04/08:00am 1.1 -0.7 1.1 100 0.0 CALM 0 0 0 0 - - 0.0
04/07:30am 0.9 -0.9 0.9 100 0.0 CALM 0 0 0 0 - - 0.0
04/07:00am 0.9 -0.9 0.9 100 0.0 CALM 0 0 0 0 - - 0.0
04/06:30am 0.7 -1.2 0.7 100 0.0 CALM 0 0 0 0 - - 0.0
04/06:00am 1.2 -0.6 1.2 100 0.0 CALM 0 0 0 0 - - 0.0
04/05:30am 1.1 -0.7 1.1 100 0.0 CALM 0 0 0 0 - - 0.0
04/05:00am 1.3 -0.5 1.3 100 0.0 CALM 0 0 0 0 - - 0.0
04/04:30am 1.0 -0.8 1.0 100 0.0 CALM 0 0 0 0 - - 0.0
04/04:00am 0.7 -1.2 0.7 100 0.0 CALM 0 0 0 0 - - 0.0
04/03:30am 1.2 -0.6 1.2 100 0.0 CALM 0 0 0 0 - - 0.0
04/03:00am 0.8 -1.1 0.8 100 0.0 CALM 0 0 0 0 - - 0.0
04/02:30am 1.0 -0.8 1.0 100 0.0 CALM 0 0 0 0 - - 0.0
04/02:00am 1.6 -1.5 1.6 100 0.0 E 7 9 4 5 - - 0.0
04/01:30am 1.9 -0.2 1.9 100 0.0 S 2 9 1 5 - - 0.0
04/01:00am 1.3 -0.5 1.3 100 0.0 CALM 0 6 0 3 - - 0.0
04/12:30am 0.9 -0.9 0.9 100 0.0 CALM 0 0 0 0 - - 0.0
04/12:00am 0.7 -1.2 0.7 100 0.0 CALM 0 0 0 0 - - 0.0
 
Date/Time
EST
Temp
°C
App
Temp
°C
Dew
Point
Rel
Hum
%
Delta-T
°C
Wind Press
QNH
hPa
Press
MSL
hPa
Rain
since 9 am
mm
Dir
 
Spd
km/h
Gust
km/h
Spd
kts
Gust
kts
03/11:30pm 0.7 -1.2 0.7 100 0.0 CALM 0 0 0 0 - - 0.0
03/11:00pm 1.6 -0.1 1.6 100 0.0 CALM 0 0 0 0 - - 0.0
03/10:30pm 1.7 -0.4 1.7 100 0.0 E 2 6 1 3 - - 0.0
03/10:00pm 2.3 0.7 2.3 100 0.0 CALM 0 0 0 0 - - 0.0
03/09:30pm 2.5 0.9 2.5 100 0.0 CALM 0 0 0 0 - - 0.0
03/09:00pm 2.8 1.3 2.8 100 0.0 CALM 0 0 0 0 - - 0.0
03/08:30pm 3.1 1.6 3.1 100 0.0 CALM 0 0 0 0 - - 0.0
03/08:00pm 3.0 1.1 3.0 100 0.0 SSE 2 7 1 4 - - 0.0
03/07:30pm 2.3 -0.5 2.3 100 0.0 E 6 9 3 5 - - 0.0
03/07:00pm 1.7 -0.4 1.7 100 0.0 ENE 2 6 1 3 - - 0.0
03/06:30pm 0.9 -1.7 0.8 99 0.0 ENE 4 7 2 4 - - 0.0
03/06:00pm 2.6 1.0 2.5 99 0.0 CALM 0 0 0 0 - - 0.0
03/05:30pm 3.7 2.2 3.0 95 0.3 CALM 0 6 0 3 - - 0.0
03/05:00pm 6.1 3.5 3.4 83 1.1 WNW 6 7 3 4 - - 0.0
03/04:30pm 8.6 6.0 4.0 73 2.0 WNW 7 9 4 5 - - 0.0
03/04:00pm 9.4 7.0 4.2 70 2.3 W 6 11 3 6 - - 0.0
03/03:30pm 8.6 6.7 5.0 78 1.6 W 4 6 2 3 - - 0.0
03/03:00pm 8.1 5.4 3.6 73 2.0 WNW 7 9 4 5 - - 0.0
03/02:30pm 11.2 8.4 3.3 58 3.5 N 7 11 4 6 - - 0.0
03/02:00pm 9.8 6.9 2.6 61 3.1 WNW 7 11 4 6 - - 0.0
03/01:30pm 10.5 7.9 3.3 61 3.2 N 6 13 3 7 - - 0.0
03/01:00pm 9.9 7.3 4.3 68 2.5 NNE 7 13 4 7 - - 0.0
03/12:30pm 9.4 6.9 4.6 72 2.2 N 7 9 4 5 - - 0.0
03/12:00pm 8.7 6.5 5.3 79 1.5 ENE 6 9 3 5 - - 0.0
03/11:30am 8.1 6.2 4.7 79 1.5 N 4 7 2 4 - - 0.0
03/11:00am 6.5 4.2 4.8 89 0.7 WSW 6 7 3 4 - - 0.0
03/10:30am 6.0 4.7 4.2 88 0.8 CALM 0 4 0 2 - - 0.0
03/10:00am 4.0 1.5 4.0 100 0.0 ESE 6 7 3 4 - - 0.0
03/09:30am 2.0 0.3 2.0 100 0.0 CALM 0 0 0 0 - - 0.0
03/09:00am 0.2 -1.8 0.2 100 0.0 CALM 0 0 0 0 - - 0.2
03/08:30am -1.9 -4.1 -1.9 100 0.0 CALM 0 0 0 0 - - 0.2
03/08:00am -3.5 -5.9 -3.5 100 0.0 CALM 0 0 0 0 - - 0.2
03/07:30am -3.9 -6.8 -3.9 100 0.0 ESE 2 7 1 4 - - 0.2
03/07:00am -4.6 -7.5 -4.6 100 0.0 ENE 2 7 1 4 - - 0.2
03/06:30am -4.1 -6.6 -4.1 100 0.0 CALM 0 0 0 0 - - 0.2
03/06:00am -3.3 -5.7 -3.3 100 0.0 CALM 0 0 0 0 - - 0.2
03/05:30am -3.3 -5.7 -3.3 100 0.0 CALM 0 0 0 0 - - 0.2
03/05:00am -3.3 -6.5 -3.3 100 0.0 E 4 6 2 3 - - 0.2
03/04:30am -3.2 -5.6 -3.2 100 0.0 CALM 0 0 0 0 - - 0.2
03/04:00am -2.9 -6.6 -2.9 100 0.0 E 7 9 4 5 - - 0.2
03/03:30am -2.5 -4.8 -2.5 100 0.0 CALM 0 0 0 0 - - 0.2
03/03:00am -2.3 -4.6 -2.3 100 0.0 CALM 0 2 0 1 - - 0.2
03/02:30am -2.4 -4.7 -2.4 100 0.0 CALM 0 0 0 0 - - 0.2
03/02:00am -2.2 -5.6 -2.2 100 0.0 E 6 9 3 5 - - 0.2
03/01:30am -1.3 -4.6 -1.3 100 0.0 SW 6 9 3 5 - - 0.2
03/01:00am -0.7 -3.9 -0.8 99 0.0 WSW 6 7 3 4 - - 0.2
03/12:30am 0.8 -2.4 0.7 99 0.0 W 7 9 4 5 - - 0.2
03/12:00am 1.8 -1.3 1.2 96 0.2 S 7 9 4 5 - - 0.2
 
Date/Time
EST
Temp
°C
App
Temp
°C
Dew
Point
Rel
Hum
%
Delta-T
°C
Wind Press
QNH
hPa
Press
MSL
hPa
Rain
since 9 am
mm
Dir
 
Spd
km/h
Gust
km/h
Spd
kts
Gust
kts
02/11:30pm 3.7 0.5 3.3 97 0.2 SSW 9 13 5 7 - - 0.2

Other Formats:

Comma delimited format used in spreadsheet applications
http://www.bom.gov.au/fwo/IDV60801/IDV60801.95837.axf

JavaScript Object Notation format (JSON) in row-major order
http://www.bom.gov.au/fwo/IDV60801/IDV60801.95837.json